Time;durP1;ratioP1;P1;durP2;ratioP2;P2;SDS_P1;SDS_P2;PMS_P1;PMS_P2;Temp;Humidity;BMP_temperature;BMP_pressure;BME280_temperature;BME280_humidity;BME280_pressure;Samples;Min_cycle;Max_cycle;Signal;HPM_P1;HPM_P2
2023/10/02 00:01:23;;;;;;;42.72;40.28;;;;;;;14.03;100.00;101562.72;5067879;28;20476;-72
2023/10/02 00:04:16;;;;;;;32.45;30.45;;;;;;;14.11;100.00;101567.84;5069071;28;20045;-72
2023/10/02 00:06:37;;;;;;;36.78;34.40;;;;;;;14.12;100.00;101558.81;5067907;28;20428;-72
2023/10/02 00:09:05;;;;;;;36.30;33.97;;;;;;;14.07;100.00;101560.44;5069393;28;20496;-72
2023/10/02 00:11:39;;;;;;;34.15;31.95;;;;;;;14.12;100.00;101556.13;5069082;28;20071;-72
2023/10/02 00:14:19;;;;;;;33.60;31.30;;;;;;;13.97;100.00;101552.88;5067440;28;20082;-72
2023/10/02 00:16:59;;;;;;;33.97;31.80;;;;;;;14.00;100.00;101563.16;5067305;28;20558;-72
2023/10/02 00:19:33;;;;;;;36.85;34.45;;;;;;;13.73;100.00;101562.34;5063527;28;20509;-72
2023/10/02 00:22:04;;;;;;;42.38;39.80;;;;;;;13.69;100.00;101563.78;5064955;28;20423;-73
2023/10/02 00:24:32;;;;;;;32.60;30.40;;;;;;;13.89;100.00;101564.63;5061937;28;20071;-71
2023/10/02 00:27:01;;;;;;;40.75;38.42;;;;;;;14.01;100.00;101564.81;5063517;28;20049;-71
2023/10/02 00:29:28;;;;;;;38.63;36.33;;;;;;;14.14;100.00;101564.78;5060529;28;20044;-72
2023/10/02 00:31:56;;;;;;;43.83;41.33;;;;;;;14.09;100.00;101572.59;5064108;28;20423;-71
2023/10/02 00:34:32;;;;;;;48.83;45.92;;;;;;;13.96;100.00;101564.59;5055352;28;20513;-72
2023/10/02 00:37:01;;;;;;;43.88;41.38;;;;;;;13.81;100.00;101566.66;5062526;28;20053;-71
2023/10/02 00:39:32;;;;;;;33.47;31.38;;;;;;;13.91;100.00;101565.22;5059964;28;20080;-71
2023/10/02 00:44:57;;;;;;;35.13;32.85;;;;;;;14.17;100.00;101568.88;5005710;28;20489;-71
2023/10/02 00:50:25;;;;;;;34.45;32.13;;;;;;;14.48;100.00;101570.84;5028728;28;20570;-71
2023/10/02 00:52:55;;;;;;;39.60;37.20;;;;;;;14.58;100.00;101570.41;5048235;28;20041;-71
2023/10/02 00:55:24;;;;;;;37.35;34.95;;;;;;;14.58;100.00;101573.09;5049876;28;20528;-72
2023/10/02 00:57:56;;;;;;;37.78;35.38;;;;;;;14.33;100.00;101579.09;5050891;28;20508;-71
2023/10/02 01:00:35;;;;;;;42.40;39.90;;;;;;;13.77;100.00;101584.09;5046355;28;20067;-72
2023/10/02 01:03:04;;;;;;;47.58;44.88;;;;;;;14.38;100.00;101581.97;5044894;28;20053;-71
2023/10/02 01:05:42;;;;;;;42.00;39.60;;;;;;;14.27;100.00;101587.97;5050682;28;20053;-72
2023/10/02 01:08:23;;;;;;;37.75;35.42;;;;;;;14.36;100.00;101596.56;5047855;28;20143;-71
2023/10/02 01:10:56;;;;;;;38.22;35.92;;;;;;;14.55;100.00;101597.56;5042984;28;20048;-71
2023/10/02 01:13:27;;;;;;;41.10;38.70;;;;;;;14.32;100.00;101600.72;5047976;28;20053;-73
2023/10/02 01:15:55;;;;;;;36.97;34.67;;;;;;;14.29;100.00;101601.13;5046983;28;20053;-73
2023/10/02 01:18:27;;;;;;;41.80;39.40;;;;;;;14.17;100.00;101599.09;5046441;28;20041;-71
2023/10/02 01:20:56;;;;;;;46.70;43.88;;;;;;;13.40;100.00;101607.69;5045505;28;20072;-72
2023/10/02 01:23:26;;;;;;;48.88;46.03;;;;;;;13.85;100.00;101598.06;5049699;28;20037;-71
2023/10/02 01:26:00;;;;;;;42.47;39.88;;;;;;;14.23;100.00;101599.28;5049314;28;20068;-72
2023/10/02 01:28:32;;;;;;;38.67;36.33;;;;;;;14.00;100.00;101594.38;5048790;28;20052;-72
2023/10/02 01:31:31;;;;;;;56.33;52.53;;;;;;;14.18;100.00;101592.69;5049686;28;20107;-71
2023/10/02 01:33:46;;;;;;;33.92;31.40;;;;;;;13.72;100.00;101593.56;5048305;28;20053;-73
2023/10/02 01:36:13;;;;;;;31.10;28.60;;;;;;;13.86;100.00;101601.59;5047484;28;20049;-73
2023/10/02 01:38:44;;;;;;;36.95;34.75;;;;;;;14.07;100.00;101592.50;5050221;28;20074;-71
2023/10/02 01:41:12;;;;;;;36.80;34.90;;;;;;;14.23;100.00;101594.75;5049444;28;20087;-73
2023/10/02 01:43:43;;;;;;;47.60;44.90;;;;;;;14.32;100.00;101598.03;5046350;28;20048;-73
2023/10/02 01:46:10;;;;;;;44.75;42.25;;;;;;;14.15;100.00;101597.66;5044633;28;20126;-73
2023/10/02 01:48:41;;;;;;;42.15;39.55;;;;;;;14.18;100.00;101605.25;5048767;28;20131;-73
2023/10/02 01:51:25;;;;;;;50.20;47.30;;;;;;;14.41;100.00;101599.44;5042466;28;20118;-73
2023/10/02 01:53:54;;;;;;;50.33;47.33;;;;;;;14.43;100.00;101597.38;5040090;28;20045;-72
2023/10/02 01:56:24;;;;;;;40.20;37.60;;;;;;;14.23;100.00;101599.28;5048165;28;20548;-72
2023/10/02 01:58:52;;;;;;;39.63;37.13;;;;;;;14.23;100.00;101600.09;5046665;28;20044;-73
2023/10/02 02:01:21;;;;;;;51.30;48.83;;;;;;;14.44;100.00;101604.38;5046040;28;20559;-73
2023/10/02 02:03:55;;;;;;;51.47;49.08;;;;;;;14.49;100.00;101601.88;5047513;28;20478;-72
2023/10/02 02:06:23;;;;;;;48.88;46.30;;;;;;;14.41;100.00;101597.59;5047411;28;20053;-72
2023/10/02 02:08:53;;;;;;;51.70;49.40;;;;;;;14.32;100.00;101603.38;5046764;28;20057;-73
2023/10/02 02:11:23;;;;;;;60.08;57.17;;;;;;;14.29;100.00;101603.78;5046235;28;20045;-73
2023/10/02 02:13:51;;;;;;;50.65;48.25;;;;;;;14.26;100.00;101606.88;5043534;28;20044;-73
2023/10/02 02:16:25;;;;;;;48.67;46.40;;;;;;;14.24;100.00;101604.41;5047598;28;20045;-72
2023/10/02 02:18:54;;;;;;;55.53;53.03;;;;;;;14.15;100.00;101609.16;5044393;28;20037;-72
2023/10/02 02:21:24;;;;;;;50.90;48.55;;;;;;;14.24;100.00;101606.25;5045501;28;20041;-71
2023/10/02 02:24:03;;;;;;;71.30;68.18;;;;;;;14.23;100.00;101604.63;5048844;28;20079;-72
2023/10/02 02:26:33;;;;;;;52.22;49.42;;;;;;;14.75;100.00;101603.69;5048889;28;20048;-72
2023/10/02 02:29:00;;;;;;;53.80;51.17;;;;;;;14.63;100.00;101608.84;5046806;28;20111;-72
2023/10/02 02:31:30;;;;;;;91.35;87.38;;;;;;;14.61;100.00;101607.41;5047924;28;20134;-73
2023/10/02 02:33:59;;;;;;;59.83;56.28;;;;;;;14.59;100.00;101609.50;5047482;28;20500;-71
2023/10/02 02:36:28;;;;;;;87.80;83.95;;;;;;;14.46;100.00;101615.66;5046977;28;20045;-72
2023/10/02 02:44:39;;;;;;;39.95;38.05;;;;;;;14.89;100.00;101624.00;5032655;28;20052;-72
2023/10/02 02:47:08;;;;;;;49.67;47.28;;;;;;;14.93;100.00;101613.69;5042726;28;20056;-73
2023/10/02 02:49:50;;;;;;;55.22;52.75;;;;;;;15.22;100.00;101619.50;5044409;28;20044;-73
2023/10/02 02:52:19;;;;;;;55.92;53.38;;;;;;;15.19;100.00;101619.91;5038976;28;20084;-72
2023/10/02 02:54:47;;;;;;;65.68;62.65;;;;;;;15.19;100.00;101630.63;5046251;28;20087;-73
2023/10/02 02:57:18;;;;;;;49.97;47.67;;;;;;;15.39;100.00;101642.03;5048971;28;20432;-72
2023/10/02 02:59:46;;;;;;;66.00;62.88;;;;;;;15.42;100.00;101635.44;5044732;28;20505;-73
2023/10/02 03:02:21;;;;;;;53.90;51.20;;;;;;;15.39;100.00;101634.00;5047976;28;20041;-72
2023/10/02 03:04:50;;;;;;;53.13;50.42;;;;;;;15.63;100.00;101637.78;5041026;28;20502;-72
2023/10/02 03:07:29;;;;;;;52.55;50.25;;;;;;;15.50;100.00;101641.38;5045585;28;20053;-73
2023/10/02 03:09:59;;;;;;;55.70;52.83;;;;;;;15.57;100.00;101639.44;5042767;28;20455;-73
2023/10/02 03:12:28;;;;;;;44.83;42.53;;;;;;;15.62;100.00;101635.31;5046243;28;20919;-73
2023/10/02 03:14:57;;;;;;;47.15;44.67;;;;;;;16.06;100.00;101630.88;5047812;28;20127;-73
2023/10/02 03:17:31;;;;;;;46.53;44.13;;;;;;;16.30;100.00;101631.88;5043078;28;20053;-73
2023/10/02 03:20:00;;;;;;;36.75;35.05;;;;;;;16.34;100.00;101630.38;4687181;28;10000080;-74
2023/10/02 03:22:27;;;;;;;47.47;44.88;;;;;;;16.53;100.00;101633.91;5041146;28;20053;-72
2023/10/02 03:24:57;;;;;;;39.05;37.35;;;;;;;16.68;100.00;101637.84;5039552;28;20088;-73
2023/10/02 03:27:26;;;;;;;53.55;49.35;;;;;;;16.62;100.00;101635.25;5040960;28;20429;-73
2023/10/02 03:29:53;;;;;;;62.90;58.40;;;;;;;16.74;100.00;101638.81;5042674;28;20076;-74
2023/10/02 03:32:21;;;;;;;57.65;52.55;;;;;;;16.82;100.00;101640.41;5042700;28;20047;-73
2023/10/02 03:35:02;;;;;;;45.63;42.42;;;;;;;17.04;100.00;101643.47;5034555;28;20454;-72
2023/10/02 03:37:29;;;;;;;35.20;33.40;;;;;;;17.19;100.00;101659.97;5042866;28;20052;-73
2023/10/02 03:40:13;;;;;;;34.50;32.70;;;;;;;16.76;100.00;101663.56;5039454;28;20791;-72
2023/10/02 03:42:42;;;;;;;33.47;31.75;;;;;;;17.21;100.00;101665.09;5041193;28;20049;-72
2023/10/02 03:45:09;;;;;;;27.27;25.67;;;;;;;17.22;100.00;101667.56;5040864;28;20055;-72
2023/10/02 03:47:37;;;;;;;35.95;34.05;;;;;;;17.53;100.00;101658.44;5042397;28;20057;-72
2023/10/02 03:50:11;;;;;;;42.92;39.40;;;;;;;17.37;100.00;101659.13;5040515;28;20057;-73
2023/10/02 03:52:41;;;;;;;29.17;26.98;;;;;;;16.56;100.00;101666.47;5031468;28;20122;-71
2023/10/02 03:55:19;;;;;;;29.77;27.38;;;;;;;17.38;100.00;101666.13;5037667;28;20061;-72
2023/10/02 03:58:02;;;;;;;28.95;26.45;;;;;;;16.54;100.00;101675.78;5042546;28;20049;-71
2023/10/02 04:00:42;;;;;;;;;;;;;;;16.26;100.00;101674.38;5042185;28;20053;-72
2023/10/02 04:03:10;;;;;;;39.95;36.75;;;;;;;16.06;100.00;101684.47;5040186;28;19932;-72
2023/10/02 04:05:42;;;;;;;37.92;35.03;;;;;;;16.23;100.00;101686.38;5042621;28;20044;-72
2023/10/02 04:08:24;;;;;;;;;;;;;;;16.16;100.00;101690.97;5040217;28;20049;-72
2023/10/02 04:10:55;;;;;;;36.60;33.33;;;;;;;16.10;100.00;101693.72;5037568;28;20007;-71
2023/10/02 04:13:25;;;;;;;34.20;31.63;;;;;;;16.00;100.00;101697.69;5041372;28;20413;-72
2023/10/02 04:15:53;;;;;;;39.65;37.45;;;;;;;16.26;100.00;101709.25;5041437;28;20095;-71
2023/10/02 04:21:09;;;;;;;34.33;32.53;;;;;;;16.64;100.00;101719.81;5040215;28;20095;-71
2023/10/02 04:23:40;;;;;;;30.63;28.95;;;;;;;16.17;100.00;101727.44;5039134;28;20594;-72
2023/10/02 04:26:19;;;;;;;26.48;25.20;;;;;;;16.18;100.00;101733.63;5045718;28;20056;-73
2023/10/02 04:28:54;;;;;;;24.70;23.30;;;;;;;16.09;100.00;101732.25;5048251;28;20056;-72
2023/10/02 04:31:22;;;;;;;18.83;17.73;;;;;;;16.24;100.00;101755.00;5050304;28;20114;-72
2023/10/02 04:34:14;;;;;;;21.65;20.35;;;;;;;15.94;100.00;101735.25;5047157;28;20060;-72
2023/10/02 04:36:41;;;;;;;21.17;19.88;;;;;;;16.18;100.00;101747.84;5042204;28;20129;-71
2023/10/02 04:39:51;;;;;;;21.63;20.05;;;;;;;16.13;100.00;101747.69;5047333;28;20056;-72
2023/10/02 04:42:15;;;;;;;21.50;20.20;;;;;;;16.06;100.00;101749.59;5045098;28;20512;-72
2023/10/02 04:44:48;;;;;;;21.40;20.10;;;;;;;16.18;100.00;101749.72;5049450;28;20049;-72
2023/10/02 04:47:17;;;;;;;22.35;21.05;;;;;;;16.21;100.00;101754.63;5041953;28;20133;-72
2023/10/02 04:52:53;;;;;;;20.63;18.77;;;;;;;16.51;100.00;101754.78;5043200;28;20535;-72
2023/10/02 04:55:24;;;;;;;17.75;16.55;;;;;;;16.01;100.00;101757.47;5047625;28;20048;-72
2023/10/02 04:57:54;;;;;;;22.17;20.60;;;;;;;15.97;100.00;101762.41;5045031;28;20037;-72
2023/10/02 05:00:32;;;;;;;20.58;19.20;;;;;;;16.21;100.00;101771.53;5047391;28;20044;-73
2023/10/02 05:03:09;;;;;;;21.50;20.00;;;;;;;16.14;100.00;101772.63;5045448;28;20563;-73
2023/10/02 05:05:42;;;;;;;23.23;21.38;;;;;;;16.16;100.00;101784.78;5047316;28;20120;-71
2023/10/02 05:08:18;;;;;;;;;;;;;;;16.07;100.00;101782.56;5045393;28;20049;-71
2023/10/02 05:10:47;;;;;;;21.67;19.90;;;;;;;15.97;100.00;101793.75;5039921;28;20416;-72
2023/10/02 05:13:13;;;;;;;20.50;19.20;;;;;;;15.95;100.00;101788.63;5048679;28;20049;-71
2023/10/02 05:16:06;;;;;;;22.70;21.10;;;;;;;18.70;100.00;101786.06;5047021;28;20103;-74
2023/10/02 05:18:33;;;;;;;20.40;19.00;;;;;;;20.00;100.00;101791.97;5047546;28;20053;-74
2023/10/02 05:21:01;;;;;;;23.52;21.92;;;;;;;20.33;100.00;101788.47;5050246;28;20584;-71
2023/10/02 05:23:28;;;;;;;21.98;20.52;;;;;;;20.07;100.00;101798.03;5050145;28;20049;-74
2023/10/02 05:25:55;;;;;;;23.73;22.13;;;;;;;21.04;100.00;101792.28;5049973;28;20139;-70
2023/10/02 05:28:21;;;;;;;24.67;22.95;;;;;;;17.65;100.00;101802.72;5043624;28;20045;-72
2023/10/02 05:30:49;;;;;;;22.73;21.23;;;;;;;16.25;100.00;101806.78;5047305;28;20471;-71
2023/10/02 05:33:36;;;;;;;24.35;22.42;;;;;;;16.30;100.00;101814.16;5047721;28;20432;-73
2023/10/02 05:36:08;;;;;;;21.05;19.75;;;;;;;16.11;100.00;101815.94;5042428;28;20053;-74
2023/10/02 05:38:36;;;;;;;27.65;24.92;;;;;;;16.10;100.00;101822.34;5045045;28;20049;-73
2023/10/02 05:41:03;;;;;;;23.45;22.05;;;;;;;16.20;100.00;101828.84;5048655;28;20243;-72
2023/10/02 05:43:39;;;;;;;22.48;21.23;;;;;;;16.11;100.00;101815.94;5046576;28;20059;-73
2023/10/02 05:46:08;;;;;;;27.25;25.85;;;;;;;17.66;100.00;101818.63;5043891;28;20057;-74
2023/10/02 05:48:37;;;;;;;27.40;25.70;;;;;;;16.26;100.00;101819.13;5042180;28;20080;-73
2023/10/02 05:51:12;;;;;;;26.35;25.05;;;;;;;16.11;100.00;101815.94;5047677;28;20101;-73
2023/10/02 05:53:53;;;;;;;29.90;28.40;;;;;;;16.25;100.00;101820.19;5040759;28;20076;-73
2023/10/02 05:56:20;;;;;;;32.70;31.00;;;;;;;16.22;100.00;101829.47;5046506;28;20570;-73
2023/10/02 05:58:49;;;;;;;30.23;28.73;;;;;;;16.22;100.00;101840.19;5047790;28;20106;-73
2023/10/02 06:01:23;;;;;;;27.45;25.95;;;;;;;16.29;100.00;101836.66;5047104;28;20037;-73
2023/10/02 06:07:19;;;;;;;28.80;27.30;;;;;;;16.00;100.00;101838.88;4865161;29;20082;-93
2023/10/02 06:14:51;;;;;;;28.33;26.92;;;;;;;16.40;100.00;101844.81;4919630;29;20155;-79
2023/10/02 06:17:20;;;;;;;37.85;36.15;;;;;;;16.47;100.00;101847.44;4920285;29;20431;-78
2023/10/02 06:19:48;;;;;;;30.30;28.73;;;;;;;16.57;100.00;101853.13;4919131;29;20054;-77
2023/10/02 06:22:15;;;;;;;27.92;26.42;;;;;;;16.32;100.00;101855.81;4927269;29;20054;-78
2023/10/02 06:24:42;;;;;;;33.35;31.75;;;;;;;16.54;100.00;101852.75;4920673;29;20062;-77
2023/10/02 06:27:14;;;;;;;25.92;24.52;;;;;;;16.92;100.00;101861.56;4924439;29;20139;-79
2023/10/02 06:29:44;;;;;;;38.75;36.95;;;;;;;16.63;100.00;101864.84;4920537;29;20110;-78
2023/10/02 06:32:16;;;;;;;35.72;33.92;;;;;;;16.66;100.00;101862.56;4923568;29;20047;-80
2023/10/02 06:34:45;;;;;;;28.67;27.27;;;;;;;16.66;100.00;101867.09;4926590;29;20151;-80
2023/10/02 06:37:13;;;;;;;29.63;28.17;;;;;;;16.81;100.00;101874.88;4919825;29;20055;-80
2023/10/02 06:39:41;;;;;;;28.30;26.90;;;;;;;16.91;100.00;101872.50;4923319;29;20055;-79
2023/10/02 06:42:09;;;;;;;24.58;23.23;;;;;;;16.57;100.00;101868.41;4928270;29;20048;-79
2023/10/02 06:44:42;;;;;;;29.17;26.95;;;;;;;16.94;100.00;101875.59;4925880;29;20059;-79
2023/10/02 06:47:13;;;;;;;27.98;26.38;;;;;;;16.38;100.00;101870.19;4925033;29;20063;-78
2023/10/02 06:49:45;;;;;;;25.65;24.20;;;;;;;16.55;100.00;101876.69;4923312;29;20058;-80
2023/10/02 06:52:16;;;;;;;26.70;25.20;;;;;;;16.79;100.00;101885.78;4920049;29;20190;-79
2023/10/02 06:54:45;;;;;;;30.67;28.88;;;;;;;16.83;100.00;101878.16;4924076;29;20066;-79
2023/10/02 06:57:13;;;;;;;25.15;23.65;;;;;;;16.93;100.00;101878.47;4923884;29;20055;-79
2023/10/02 06:59:51;;;;;;;25.02;23.63;;;;;;;16.29;100.00;101882.22;4920766;29;20487;-80
2023/10/02 07:02:19;;;;;;;25.45;24.05;;;;;;;16.27;100.00;101885.91;4922267;29;20066;-81
2023/10/02 07:04:48;;;;;;;27.45;25.95;;;;;;;16.31;100.00;101886.34;4923466;29;20044;-81
2023/10/02 07:07:20;;;;;;;25.88;24.38;;;;;;;16.25;100.00;101885.34;4918283;29;20459;-79
2023/10/02 07:09:48;;;;;;;27.63;25.95;;;;;;;16.19;100.00;101885.38;4919363;29;20044;-79
2023/10/02 07:12:14;;;;;;;24.00;22.30;;;;;;;16.16;100.00;101889.31;4918514;29;20044;-79
2023/10/02 07:14:43;;;;;;;24.80;23.30;;;;;;;15.96;100.00;101894.75;4924902;29;20055;-80
2023/10/02 07:17:17;;;;;;;25.30;23.70;;;;;;;16.11;100.00;101896.34;4923960;29;20051;-80
2023/10/02 07:19:51;;;;;;;25.70;24.30;;;;;;;16.16;100.00;101889.31;4923037;29;20086;-78
2023/10/02 07:22:25;;;;;;;26.80;25.30;;;;;;;16.52;100.00;101895.06;4918497;29;20051;-80
2023/10/02 07:24:55;;;;;;;25.63;24.13;;;;;;;16.29;100.00;101901.81;4921040;29;20500;-80
2023/10/02 07:27:25;;;;;;;27.30;25.70;;;;;;;16.15;100.00;101905.59;4925761;29;20056;-80
2023/10/02 07:29:53;;;;;;;27.90;26.10;;;;;;;16.18;100.00;101894.44;4919807;29;20048;-81
2023/10/02 07:32:22;;;;;;;24.95;23.45;;;;;;;16.05;100.00;101897.19;4920935;29;20052;-79
2023/10/02 07:34:51;;;;;;;26.60;25.02;;;;;;;16.09;100.00;101898.41;4921131;29;20055;-79
2023/10/02 07:37:22;;;;;;;29.55;25.48;;;;;;;16.01;100.00;101899.47;4915849;29;20110;-78
2023/10/02 07:39:56;;;;;;;28.08;24.80;;;;;;;16.03;100.00;101908.94;4920016;29;20083;-79
2023/10/02 07:42:29;;;;;;;28.63;27.02;;;;;;;16.16;100.00;101905.38;4922513;29;20536;-80
2023/10/02 07:45:12;;;;;;;50.05;29.58;;;;;;;16.24;100.00;101913.16;4923363;29;20048;-80
2023/10/02 07:47:55;;;;;;;;;;;;;;;16.05;100.00;101915.94;4924376;29;20476;-79
2023/10/02 07:50:33;;;;;;;29.15;27.55;;;;;;;16.06;100.00;101909.53;4921615;29;19931;-80
2023/10/02 07:53:04;;;;;;;30.30;28.60;;;;;;;16.07;100.00;101914.72;4922182;29;20134;-79
2023/10/02 07:55:32;;;;;;;27.80;26.30;;;;;;;16.01;100.00;101913.69;4915594;29;20048;-81
2023/10/02 07:58:00;;;;;;;27.13;25.63;;;;;;;16.31;100.00;101920.34;4928609;29;20063;-80
2023/10/02 08:00:40;;;;;;;26.70;25.15;;;;;;;16.11;100.00;101928.50;4921580;29;20075;-79
2023/10/02 08:05:57;;;;;;;29.80;28.20;;;;;;;16.49;100.00;101932.00;4927168;29;20566;-79
2023/10/02 08:08:33;;;;;;;31.75;30.05;;;;;;;16.74;100.00;101936.59;4922818;29;20551;-80
2023/10/02 08:11:10;;;;;;;33.10;31.40;;;;;;;16.34;100.00;101926.13;4917909;29;20108;-80
2023/10/02 08:13:48;;;;;;;28.42;26.83;;;;;;;16.29;100.00;101933.97;4919333;29;20052;-79
2023/10/02 08:16:17;;;;;;;37.42;35.25;;;;;;;16.71;100.00;101937.84;4921601;29;20059;-80
2023/10/02 08:18:58;;;;;;;35.60;33.80;;;;;;;16.59;100.00;101931.53;4926585;29;20090;-79
2023/10/02 08:21:46;;;;;;;36.10;34.20;;;;;;;16.61;100.00;101933.97;4920144;29;20408;-80
2023/10/02 08:24:13;;;;;;;33.45;31.25;;;;;;;16.52;100.00;101946.84;4920338;29;20539;-80
2023/10/02 08:26:43;;;;;;;32.33;30.63;;;;;;;16.56;100.00;101939.19;4926043;29;20728;-79
2023/10/02 08:29:11;;;;;;;34.53;32.72;;;;;;;16.65;100.00;101935.22;4925759;29;20062;-78
2023/10/02 08:31:42;;;;;;;31.90;30.10;;;;;;;16.69;100.00;101939.91;4930386;29;20048;-79
2023/10/02 08:34:13;;;;;;;36.63;34.65;;;;;;;16.86;100.00;101934.06;4925553;29;20052;-80
2023/10/02 08:36:42;;;;;;;36.55;34.65;;;;;;;16.94;100.00;101940.00;4925124;29;20055;-80
2023/10/02 08:39:09;;;;;;;25.40;23.90;;;;;;;16.93;100.00;101932.13;4923015;29;20055;-80
2023/10/02 08:41:43;;;;;;;28.95;27.25;;;;;;;17.09;100.00;101936.94;4919302;29;20114;-80
2023/10/02 08:44:17;;;;;;;25.48;23.88;;;;;;;16.91;100.00;101934.22;4928121;29;20048;-80
2023/10/02 08:46:45;;;;;;;28.60;26.88;;;;;;;16.89;100.00;101933.63;4928124;29;20056;-81
2023/10/02 08:49:13;;;;;;;27.90;26.30;;;;;;;16.92;100.00;101939.38;4928224;29;20048;-81
2023/10/02 08:51:48;;;;;;;30.20;27.98;;;;;;;17.00;100.00;101934.75;4926447;29;20622;-80
2023/10/02 08:54:17;;;;;;;24.73;23.02;;;;;;;17.00;100.00;101940.13;4927967;29;20413;-79
2023/10/02 08:56:44;;;;;;;25.63;23.73;;;;;;;16.85;100.00;101943.97;4924066;29;20593;-78
2023/10/02 08:59:26;;;;;;;25.98;24.08;;;;;;;17.03;100.00;101934.31;4931468;29;20063;-79
2023/10/02 09:02:07;;;;;;;28.00;26.23;;;;;;;17.07;100.00;101933.69;4930477;29;20080;-80
2023/10/02 09:04:34;;;;;;;23.80;22.17;;;;;;;17.17;100.00;101936.69;4924738;29;20060;-80
2023/10/02 09:07:14;;;;;;;25.25;23.55;;;;;;;17.22;100.00;101937.91;4919425;29;20056;-80
2023/10/02 09:09:47;;;;;;;24.92;23.33;;;;;;;17.32;100.00;101941.72;4926308;29;20070;-79
2023/10/02 09:12:16;;;;;;;25.05;23.45;;;;;;;17.28;100.00;101940.53;4919722;29;20615;-79
2023/10/02 09:14:43;;;;;;;25.13;23.45;;;;;;;17.11;100.00;101944.78;4924671;29;20062;-79
2023/10/02 09:17:19;;;;;;;24.90;23.30;;;;;;;17.26;100.00;101944.47;4925319;29;20052;-80
2023/10/02 09:20:00;;;;;;;27.85;26.15;;;;;;;17.44;100.00;101941.00;4925208;29;20040;-81
2023/10/02 09:22:29;;;;;;;27.15;25.55;;;;;;;17.22;100.00;101936.03;4931312;29;20079;-80
2023/10/02 09:25:09;;;;;;;31.02;28.52;;;;;;;17.38;100.00;101938.13;4924219;29;20393;-79
2023/10/02 09:27:41;;;;;;;30.75;28.95;;;;;;;17.24;100.00;101935.78;4925270;29;20071;-79
2023/10/02 09:30:15;;;;;;;31.58;29.98;;;;;;;17.22;100.00;101936.03;4925774;29;20143;-80
2023/10/02 09:32:49;;;;;;;35.00;33.20;;;;;;;17.36;100.00;101940.22;4929467;29;20615;-80
2023/10/02 09:35:29;;;;;;;37.00;35.17;;;;;;;17.36;100.00;101942.09;4926045;29;20492;-80
2023/10/02 09:38:02;;;;;;;33.20;31.50;;;;;;;17.40;100.00;101944.13;4925387;29;20052;-80
2023/10/02 09:40:51;;;;;;;28.50;26.88;;;;;;;17.40;100.00;101941.44;4927923;29;20080;-81
2023/10/02 09:43:23;;;;;;;29.02;27.52;;;;;;;17.30;100.00;101942.97;4926472;29;20605;-80
2023/10/02 09:45:53;;;;;;;26.90;25.40;;;;;;;17.31;100.00;101942.75;4925844;29;20186;-81
2023/10/02 09:51:37;;;;;;;28.73;27.13;;;;;;;17.32;100.00;101944.41;4918956;29;20526;-79
2023/10/02 09:54:17;;;;;;;33.33;31.50;;;;;;;17.31;100.00;101945.44;4916391;29;20113;-79
2023/10/02 09:57:05;;;;;;;30.17;28.52;;;;;;;17.49;100.00;101938.44;4927288;29;20059;-80
2023/10/02 09:59:37;;;;;;;30.27;28.58;;;;;;;17.65;100.00;101939.75;4920828;29;20430;-80
2023/10/02 10:10:57;;;;;;;36.25;33.20;;;;;;;18.42;100.00;101926.59;4920071;29;20055;-80
2023/10/02 10:13:31;;;;;;;32.78;30.98;;;;;;;18.25;100.00;101921.06;4923843;29;20083;-81
2023/10/02 10:16:35;;;;;;;32.25;30.40;;;;;;;18.57;100.00;101924.31;4926104;29;20056;-79
2023/10/02 10:19:26;;;;;;;34.47;32.28;;;;;;;18.56;100.00;101921.84;4918935;29;20060;-79
2023/10/02 10:22:00;;;;;;;34.10;32.30;;;;;;;18.72;100.00;101922.00;4925676;29;20043;-79
2023/10/02 10:24:51;;;;;;;32.42;30.42;;;;;;;19.00;100.00;101925.94;4926993;29;20127;-80
2023/10/02 10:27:58;;;;;;;32.15;30.15;;;;;;;18.83;100.00;101914.22;4926004;29;20624;-80
2023/10/02 10:30:39;;;;;;;30.02;28.15;;;;;;;18.94;100.00;101919.63;4924617;29;20523;-80
2023/10/02 10:33:36;;;;;;;33.00;31.08;;;;;;;18.89;100.00;101908.72;4920682;29;20190;-79
2023/10/02 10:36:13;;;;;;;33.13;31.33;;;;;;;18.73;100.00;101914.81;4928237;29;20052;-79
2023/10/02 10:38:41;;;;;;;32.25;30.35;;;;;;;18.89;100.00;101907.91;4926295;29;20071;-81
2023/10/02 10:41:09;;;;;;;30.10;28.40;;;;;;;18.86;100.00;101906.50;4930469;29;20519;-80
2023/10/02 10:43:56;;;;;;;28.83;27.02;;;;;;;18.97;100.00;101908.41;4922964;29;20059;-79
2023/10/02 10:46:24;;;;;;;33.90;32.20;;;;;;;19.34;100.00;101908.16;4924437;29;20051;-80
2023/10/02 10:49:07;;;;;;;34.15;32.45;;;;;;;19.43;100.00;101893.25;4925193;29;20082;-80
2023/10/02 10:51:36;;;;;;;30.48;28.88;;;;;;;19.47;100.00;101896.31;4921973;29;20062;-79
2023/10/02 10:54:13;;;;;;;34.75;33.00;;;;;;;19.39;100.00;101902.03;4915821;29;20056;-80
2023/10/02 10:56:44;;;;;;;36.22;34.50;;;;;;;20.23;100.00;101891.63;4922300;29;20135;-79
2023/10/02 10:59:24;;;;;;;35.30;33.50;;;;;;;19.97;100.00;101892.22;4922794;29;20512;-80
2023/10/02 11:02:09;;;;;;;38.95;37.05;;;;;;;20.10;100.00;101879.28;4919740;29;20048;-80
2023/10/02 11:04:39;;;;;;;32.95;31.35;;;;;;;19.90;100.00;101881.56;4927731;29;20420;-81
2023/10/02 11:07:19;;;;;;;28.52;27.02;;;;;;;20.21;100.00;101882.16;4926128;29;20114;-80
2023/10/02 11:10:14;;;;;;;25.50;24.00;;;;;;;20.43;100.00;101885.78;4919196;29;20055;-79
2023/10/02 11:12:39;;;;;;;;;;;;;;;20.11;100.00;101880.09;4925371;29;20111;-79
2023/10/02 11:15:43;;;;;;;32.17;30.48;;;;;;;20.59;100.00;101881.50;4922448;29;20354;-79
2023/10/02 11:18:19;;;;;;;29.48;27.77;;;;;;;20.35;100.00;101878.09;4928880;29;20067;-80
2023/10/02 11:20:49;;;;;;;31.27;29.48;;;;;;;20.28;100.00;101870.16;4915892;29;20511;-81
2023/10/02 11:23:37;;;;;;;44.08;41.60;;;;;;;20.65;100.00;101866.22;4931470;29;20184;-81
2023/10/02 11:26:10;;;;;;;32.50;30.80;;;;;;;20.32;100.00;101878.56;4921694;29;20060;-80
2023/10/02 11:28:38;;;;;;;32.55;30.85;;;;;;;20.27;100.00;101871.22;4923137;29;20567;-80
2023/10/02 11:31:33;;;;;;;45.55;43.45;;;;;;;20.11;100.00;101870.09;4926695;29;20056;-80
2023/10/02 11:34:04;;;;;;;40.78;38.78;;;;;;;20.74;100.00;101862.84;4919586;29;20405;-80
2023/10/02 11:36:35;;;;;;;33.40;31.70;;;;;;;20.83;100.00;101862.44;4924380;29;20056;-79
2023/10/02 11:39:08;;;;;;;33.47;31.77;;;;;;;20.81;100.00;101862.69;4921421;29;20088;-79
2023/10/02 11:41:36;;;;;;;38.00;36.10;;;;;;;20.97;100.00;101858.34;4926212;29;20052;-79
2023/10/02 11:44:04;;;;;;;29.52;27.52;;;;;;;20.80;100.00;101864.56;4922060;29;20146;-79
2023/10/02 11:46:33;;;;;;;29.17;27.38;;;;;;;20.84;100.00;101856.78;4922434;29;20123;-79
2023/10/02 11:49:01;;;;;;;50.67;27.50;;;;;;;21.14;100.00;101856.41;4916539;29;20058;-80
2023/10/02 11:51:29;;;;;;;28.25;26.48;;;;;;;21.28;100.00;101848.78;4921189;29;20052;-80
2023/10/02 11:54:05;;;;;;;24.77;23.25;;;;;;;21.25;100.00;101852.78;4914652;29;20301;-80
2023/10/02 11:56:34;;;;;;;27.33;25.63;;;;;;;21.01;100.00;101846.78;4927769;29;20519;-79
2023/10/02 11:59:02;;;;;;;26.67;24.95;;;;;;;20.89;100.00;101846.06;4924191;29;20059;-81
2023/10/02 12:01:29;;;;;;;27.35;25.65;;;;;;;20.67;100.00;101848.72;4920175;29;20052;-79
2023/10/02 12:03:58;;;;;;;27.70;26.10;;;;;;;20.73;100.00;101850.44;4920986;29;20052;-79
2023/10/02 12:06:25;;;;;;;26.75;25.25;;;;;;;20.57;100.00;101856.63;4922041;29;20075;-79
2023/10/02 12:08:56;;;;;;;25.85;24.38;;;;;;;20.59;100.00;101855.31;4926528;29;20050;-80